Time;durP1;ratioP1;P1;durP2;ratioP2;P2;SDS_P1;SDS_P2;PMS_P1;PMS_P2;Temp;Humidity;BMP_temperature;BMP_pressure;BME280_temperature;BME280_humidity;BME280_pressure;Samples;Min_cycle;Max_cycle;Signal;HPM_P1;HPM_P2
2023/03/17 00:01:10;;;;;;;;;;;8.50;81.30;;;;;;5093740;28;19931;-74
2023/03/17 00:03:37;;;;;;;;;;;8.40;81.30;;;;;;5100777;28;19939;-78
2023/03/17 00:06:04;;;;;;;;;;;8.40;81.30;;;;;;5098304;28;19940;-77
2023/03/17 00:08:33;;;;;;;;;;;8.40;81.30;;;;;;5096372;28;19932;-77
2023/03/17 00:11:00;;;;;;;;;;;8.40;81.30;;;;;;5089049;28;19935;-74
2023/03/17 00:13:27;;;;;;;;;;;8.40;81.30;;;;;;5091356;28;20021;-74
2023/03/17 00:15:55;;;;;;;;;;;8.30;81.30;;;;;;5091144;28;19932;-74
2023/03/17 00:18:22;;;;;;;;;;;8.30;81.40;;;;;;5097290;28;19939;-75
2023/03/17 00:20:49;;;;;;;;;;;8.30;81.50;;;;;;5095784;28;19936;-77
2023/03/17 00:23:16;;;;;;;;;;;8.30;81.50;;;;;;5093926;28;19954;-78
2023/03/17 00:25:45;;;;;;;;;;;8.30;81.60;;;;;;5092218;27;19931;-76
2023/03/17 00:28:17;;;;;;;;;;;8.30;81.60;;;;;;5100034;28;20008;-78
2023/03/17 00:30:43;;;;;;;;;;;8.30;81.60;;;;;;5094859;28;20342;-78
2023/03/17 00:33:11;;;;;;;;;;;8.30;81.70;;;;;;5096611;28;19927;-77
2023/03/17 00:35:39;;;;;;;;;;;8.20;81.70;;;;;;5100055;28;19928;-77
2023/03/17 00:38:06;;;;;;;;;;;8.20;81.80;;;;;;5098446;28;19927;-76
2023/03/17 00:40:33;;;;;;;;;;;8.20;81.80;;;;;;5102347;27;19928;-78
2023/03/17 00:43:01;;;;;;;;;;;8.20;81.80;;;;;;5095312;28;19932;-74
2023/03/17 00:45:28;;;;;;;;;;;8.20;81.90;;;;;;5095757;28;20656;-75
2023/03/17 00:47:55;;;;;;;;;;;8.20;81.90;;;;;;5097973;27;19938;-79
2023/03/17 00:50:24;;;;;;;;;;;8.10;81.90;;;;;;5096306;28;19930;-74
2023/03/17 00:52:51;;;;;;;;;;;8.10;82.00;;;;;;5097065;27;20499;-75
2023/03/17 00:55:18;;;;;;;;;;;8.10;82.10;;;;;;5094899;28;19934;-77
2023/03/17 00:57:45;;;;;;;;;;;8.10;82.10;;;;;;5094297;27;19967;-77
2023/03/17 01:00:21;;;;;;;;;;;8.10;82.20;;;;;;5099226;28;19928;-76
2023/03/17 01:02:48;;;;;;;;;;;8.10;82.20;;;;;;5097728;28;19928;-77
2023/03/17 01:05:15;;;;;;;;;;;8.00;82.20;;;;;;5102054;28;19927;-78
2023/03/17 01:07:46;;;;;;;;;;;8.00;82.30;;;;;;5099562;27;19973;-77
2023/03/17 01:10:15;;;;;;;;;;;8.00;82.30;;;;;;5095914;28;20024;-78
2023/03/17 01:12:41;;;;;;;;;;;8.00;82.40;;;;;;5092966;28;20332;-76
2023/03/17 01:15:08;;;;;;;;;;;8.00;82.40;;;;;;5095158;28;19927;-77
2023/03/17 01:17:38;;;;;;;;;;;7.90;82.40;;;;;;5096265;28;19928;-77
2023/03/17 01:20:05;;;;;;;;;;;8.00;82.50;;;;;;5097178;28;19996;-75
2023/03/17 01:22:32;;;;;;;;;;;8.00;82.50;;;;;;5090129;28;20484;-79
2023/03/17 01:24:58;;;;;;;;;;;7.90;82.50;;;;;;5087136;28;20602;-75
2023/03/17 01:27:25;;;;;;;;;;;7.90;82.60;;;;;;5094427;28;20593;-75
2023/03/17 01:29:52;;;;;;;;;;;7.90;82.60;;;;;;5093611;28;19932;-75
2023/03/17 01:32:18;;;;;;;;;;;7.90;82.70;;;;;;5093724;28;19932;-76
2023/03/17 01:34:46;;;;;;;;;;;7.90;82.70;;;;;;5095120;28;19928;-76
2023/03/17 01:37:13;;;;;;;;;;;7.80;82.70;;;;;;5092385;28;19958;-76
2023/03/17 01:39:40;;;;;;;;;;;7.80;82.80;;;;;;5091531;28;19932;-76
2023/03/17 01:42:07;;;;;;;;;;;7.80;82.90;;;;;;5091336;28;19932;-78
2023/03/17 01:44:33;;;;;;;;;;;7.80;82.90;;;;;;5093537;28;19928;-79
2023/03/17 01:47:00;;;;;;;;;;;7.80;82.90;;;;;;5096155;28;19935;-75
2023/03/17 01:49:29;;;;;;;;;;;7.80;83.70;;;;;;5096546;28;20019;-75
2023/03/17 01:52:02;;;;;;;;;;;7.80;83.00;;;;;;5090904;28;20028;-75
2023/03/17 01:54:33;;;;;;;;;;;7.70;83.10;;;;;;5092923;28;19938;-75
2023/03/17 01:57:02;;;;;;;;;;;7.70;83.10;;;;;;5090239;28;20561;-75
2023/03/17 01:59:32;;;;;;;;;;;7.70;83.10;;;;;;5096341;28;19927;-75
2023/03/17 02:02:01;;;;;;;;;;;7.70;83.20;;;;;;5094610;28;20384;-76
2023/03/17 02:04:28;;;;;;;;;;;7.70;83.20;;;;;;5097372;28;20011;-74
2023/03/17 02:06:55;;;;;;;;;;;7.70;83.30;;;;;;5090351;28;19927;-76
2023/03/17 02:09:23;;;;;;;;;;;7.70;83.30;;;;;;5097153;28;20482;-74
2023/03/17 02:11:53;;;;;;;;;;;7.70;84.10;;;;;;5092629;28;21183;-75
2023/03/17 02:14:19;;;;;;;;;;;7.60;83.40;;;;;;5094828;28;20305;-76
2023/03/17 02:16:46;;;;;;;;;;;7.60;83.50;;;;;;5093124;28;19972;-76
2023/03/17 02:19:12;;;;;;;;;;;7.60;83.50;;;;;;5096390;28;19939;-78
2023/03/17 02:21:41;;;;;;;;;;;7.60;83.50;;;;;;5100610;28;19924;-76
2023/03/17 02:24:11;;;;;;;;;;;7.50;83.60;;;;;;5094430;27;19932;-78
2023/03/17 02:26:37;;;;;;;;;;;7.50;83.60;;;;;;5098240;27;19932;-78
2023/03/17 02:29:05;;;;;;;;;;;7.50;83.60;;;;;;5095847;28;19928;-75
2023/03/17 02:31:31;;;;;;;;;;;7.50;83.70;;;;;;5099272;27;19927;-76
2023/03/17 02:33:58;;;;;;;;;;;7.50;83.70;;;;;;5094022;28;20401;-75
2023/03/17 02:36:24;;;;;;;;;;;7.50;83.70;;;;;;5097255;27;19928;-77
2023/03/17 02:38:52;;;;;;;;;;;7.50;83.70;;;;;;5095751;28;19928;-74
2023/03/17 02:41:19;;;;;;;;;;;7.50;83.80;;;;;;5096883;27;19928;-76
2023/03/17 02:43:45;;;;;;;;;;;7.50;83.80;;;;;;5098188;28;19932;-77
2023/03/17 02:46:12;;;;;;;;;;;7.50;83.80;;;;;;5102047;28;20010;-75
2023/03/17 02:48:39;;;;;;;;;;;7.40;83.80;;;;;;5095781;27;19980;-77
2023/03/17 02:51:06;;;;;;;;;;;7.40;83.90;;;;;;5103495;28;19951;-78
2023/03/17 02:53:32;;;;;;;;;;;7.40;83.90;;;;;;5100701;28;19932;-76
2023/03/17 02:56:00;;;;;;;;;;;7.40;84.00;;;;;;5089692;28;20026;-75
2023/03/17 02:58:27;;;;;;;;;;;7.40;84.00;;;;;;5089397;28;20325;-76
2023/03/17 03:00:54;;;;;;;;;;;7.40;84.10;;;;;;5096509;28;19935;-75
2023/03/17 03:03:20;;;;;;;;;;;7.30;84.00;;;;;;5090077;27;19985;-75
2023/03/17 03:05:47;;;;;;;;;;;7.30;84.10;;;;;;5096125;28;19928;-77
2023/03/17 03:08:13;;;;;;;;;;;7.30;84.10;;;;;;5093661;28;19961;-76
2023/03/17 03:10:40;;;;;;;;;;;7.30;84.20;;;;;;5099195;27;19931;-76
2023/03/17 03:13:08;;;;;;;;;;;7.30;84.20;;;;;;5092856;27;21671;-75
2023/03/17 03:15:36;;;;;;;;;;;7.30;84.20;;;;;;5096204;28;19970;-78
2023/03/17 03:18:02;;;;;;;;;;;7.30;84.30;;;;;;5095799;28;19932;-77
2023/03/17 03:20:29;;;;;;;;;;;7.20;84.20;;;;;;5092655;28;20283;-75
2023/03/17 03:22:55;;;;;;;;;;;7.20;84.20;;;;;;5097967;27;19976;-76
2023/03/17 03:25:22;;;;;;;;;;;7.20;84.30;;;;;;5093584;27;20426;-75
2023/03/17 03:27:48;;;;;;;;;;;7.20;84.30;;;;;;5100215;28;20386;-78
2023/03/17 03:30:17;;;;;;;;;;;7.20;84.30;;;;;;5096589;27;19977;-78
2023/03/17 03:32:43;;;;;;;;;;;7.20;84.30;;;;;;5095159;27;19934;-77
2023/03/17 03:35:10;;;;;;;;;;;7.10;84.30;;;;;;5099799;27;19939;-75
2023/03/17 03:37:36;;;;;;;;;;;7.10;84.30;;;;;;5097705;28;20484;-78
2023/03/17 03:40:03;;;;;;;;;;;7.10;84.30;;;;;;5095843;27;20502;-77
2023/03/17 03:42:30;;;;;;;;;;;7.10;84.30;;;;;;5096559;28;20015;-76
2023/03/17 03:44:56;;;;;;;;;;;7.10;84.40;;;;;;5098298;27;19977;-75
2023/03/17 03:47:25;;;;;;;;;;;7.00;84.30;;;;;;5099448;28;19931;-75
2023/03/17 03:49:51;;;;;;;;;;;7.00;84.30;;;;;;5097532;27;19928;-75
2023/03/17 03:52:18;;;;;;;;;;;7.00;84.40;;;;;;5097421;28;20585;-78
2023/03/17 03:54:44;;;;;;;;;;;7.00;84.40;;;;;;5099779;28;20499;-77
2023/03/17 03:57:11;;;;;;;;;;;7.00;84.40;;;;;;5100483;27;19932;-75
2023/03/17 03:59:38;;;;;;;;;;;7.00;84.40;;;;;;5094483;28;19955;-78
2023/03/17 04:02:05;;;;;;;;;;;6.90;84.40;;;;;;5097194;27;20390;-77
2023/03/17 04:04:33;;;;;;;;;;;6.90;84.40;;;;;;5098852;28;20400;-77
2023/03/17 04:07:00;;;;;;;;;;;6.90;84.40;;;;;;5095384;28;20472;-77
2023/03/17 04:09:26;;;;;;;;;;;6.90;84.40;;;;;;5099097;27;19928;-74
2023/03/17 04:11:53;;;;;;;;;;;6.90;84.40;;;;;;5096525;28;20339;-76
2023/03/17 04:14:19;;;;;;;;;;;6.80;84.30;;;;;;5095538;28;20389;-76
2023/03/17 04:16:46;;;;;;;;;;;6.80;84.30;;;;;;5096296;27;19928;-78
2023/03/17 04:19:12;;;;;;;;;;;6.80;84.30;;;;;;5095108;28;19976;-78
2023/03/17 04:21:41;;;;;;;;;;;6.80;84.30;;;;;;5095544;27;19931;-75
2023/03/17 04:24:08;;;;;;;;;;;6.80;84.40;;;;;;5088928;28;20472;-78
2023/03/17 04:26:34;;;;;;;;;;;6.70;84.20;;;;;;5094886;28;19938;-76
2023/03/17 04:29:01;;;;;;;;;;;6.70;84.30;;;;;;5099223;27;19935;-78
2023/03/17 04:31:27;;;;;;;;;;;6.70;84.20;;;;;;5099156;28;19931;-74
2023/03/17 04:33:54;;;;;;;;;;;6.70;84.20;;;;;;5098983;28;19934;-76
2023/03/17 04:36:22;;;;;;;;;;;6.60;84.40;;;;;;5099984;27;19981;-75
2023/03/17 04:38:50;;;;;;;;;;;6.60;84.40;;;;;;5097426;27;19934;-78
2023/03/17 04:41:17;;;;;;;;;;;6.60;84.40;;;;;;5096800;27;20587;-78
2023/03/17 04:43:43;;;;;;;;;;;6.60;84.40;;;;;;5091522;28;19928;-78
2023/03/17 04:46:10;;;;;;;;;;;6.60;84.40;;;;;;5088661;28;20522;-77
2023/03/17 04:48:37;;;;;;;;;;;6.60;84.40;;;;;;5102185;28;19947;-76
2023/03/17 04:51:04;;;;;;;;;;;6.50;84.40;;;;;;5090295;28;19928;-79
2023/03/17 04:53:30;;;;;;;;;;;6.50;84.40;;;;;;5102150;28;19928;-76
2023/03/17 04:55:58;;;;;;;;;;;6.50;84.40;;;;;;5094927;28;19928;-73
2023/03/17 04:58:24;;;;;;;;;;;6.50;84.40;;;;;;5093031;27;19931;-75
2023/03/17 05:00:51;;;;;;;;;;;6.50;84.40;;;;;;5094287;28;19950;-77
2023/03/17 05:03:18;;;;;;;;;;;6.40;84.40;;;;;;5087556;28;20309;-78
2023/03/17 05:05:45;;;;;;;;;;;6.50;84.40;;;;;;5094869;28;19927;-78
2023/03/17 05:08:12;;;;;;;;;;;6.50;84.50;;;;;;5092405;28;19954;-77
2023/03/17 05:10:38;;;;;;;;;;;6.40;84.50;;;;;;5096058;27;20424;-77
2023/03/17 05:13:06;;;;;;;;;;;6.40;84.40;;;;;;5091683;28;19932;-78
2023/03/17 05:15:33;;;;;;;;;;;6.40;84.50;;;;;;5094887;28;20483;-76
2023/03/17 05:17:59;;;;;;;;;;;6.40;85.20;;;;;;5096285;27;19935;-77
2023/03/17 05:20:26;;;;;;;;;;;6.30;84.40;;;;;;5100074;28;19936;-76
2023/03/17 05:22:53;;;;;;;;;;;6.30;84.50;;;;;;5094031;28;20279;-75
2023/03/17 05:25:19;;;;;;;;;;;6.30;84.50;;;;;;5099680;28;20067;-78
2023/03/17 05:27:46;;;;;;;;;;;6.30;84.50;;;;;;5096503;28;19942;-75
2023/03/17 05:30:14;;;;;;;;;;;6.30;84.60;;;;;;5097376;28;19947;-77
2023/03/17 05:32:41;;;;;;;;;;;6.30;84.60;;;;;;5092314;28;20424;-77
2023/03/17 05:35:07;;;;;;;;;;;6.20;84.50;;;;;;5095486;28;19932;-75
2023/03/17 05:37:34;;;;;;;;;;;6.20;84.50;;;;;;5096546;28;19928;-77
2023/03/17 05:40:01;;;;;;;;;;;6.20;84.60;;;;;;5091260;28;19932;-75
2023/03/17 05:42:28;;;;;;;;;;;6.20;84.60;;;;;;5096508;28;19931;-75
2023/03/17 05:44:54;;;;;;;;;;;6.20;84.70;;;;;;5092294;28;20389;-76
2023/03/17 05:47:22;;;;;;;;;;;6.20;84.70;;;;;;5095233;28;19932;-74
2023/03/17 05:49:49;;;;;;;;;;;6.10;84.70;;;;;;5090447;28;20383;-76
2023/03/17 05:52:16;;;;;;;;;;;6.10;84.70;;;;;;5092194;28;19976;-78
2023/03/17 05:54:43;;;;;;;;;;;6.10;84.70;;;;;;5096534;28;19934;-79
2023/03/17 05:57:11;;;;;;;;;;;6.10;85.50;;;;;;5096545;27;19928;-74
2023/03/17 05:59:37;;;;;;;;;;;6.10;84.90;;;;;;5097536;28;20456;-78
2023/03/17 06:02:04;;;;;;;;;;;6.10;84.90;;;;;;5090896;28;19932;-78
2023/03/17 06:04:32;;;;;;;;;;;6.10;84.90;;;;;;5083931;28;19981;-75
2023/03/17 06:06:59;;;;;;;;;;;6.00;84.90;;;;;;5094231;28;20617;-76
2023/03/17 06:09:25;;;;;;;;;;;6.00;84.90;;;;;;5099928;27;19928;-75
2023/03/17 06:11:52;;;;;;;;;;;6.00;85.00;;;;;;5097867;27;19927;-75
2023/03/17 06:14:18;;;;;;;;;;;6.00;85.00;;;;;;5094810;28;20675;-78
2023/03/17 06:16:45;;;;;;;;;;;6.00;85.00;;;;;;5095085;28;19943;-77
2023/03/17 06:19:11;;;;;;;;;;;6.00;85.10;;;;;;5094711;28;19935;-76
2023/03/17 06:21:40;;;;;;;;;;;6.00;85.80;;;;;;5081559;28;20068;-79
2023/03/17 06:24:07;;;;;;;;;;;6.00;85.10;;;;;;5077147;28;20378;-79
2023/03/17 06:26:33;;;;;;;;;;;5.90;85.10;;;;;;5081735;28;19939;-76
2023/03/17 06:29:00;;;;;;;;;;;6.00;85.20;;;;;;5080746;28;19939;-78
2023/03/17 06:31:26;;;;;;;;;;;5.90;85.20;;;;;;5099985;27;19928;-74
2023/03/17 06:33:53;;;;;;;;;;;5.90;85.20;;;;;;5096396;28;20373;-74
2023/03/17 06:36:20;;;;;;;;;;;5.90;85.20;;;;;;5097160;27;19992;-73
2023/03/17 06:38:48;;;;;;;;;;;5.90;85.30;;;;;;5095452;28;19928;-76
2023/03/17 06:41:15;;;;;;;;;;;5.90;85.30;;;;;;5099882;28;19981;-75
2023/03/17 06:43:41;;;;;;;;;;;5.80;85.30;;;;;;5097965;28;20389;-75
2023/03/17 06:46:08;;;;;;;;;;;5.90;85.40;;;;;;5102422;27;19935;-77
2023/03/17 06:48:34;;;;;;;;;;;5.80;85.40;;;;;;5101934;28;19928;-75
2023/03/17 06:51:01;;;;;;;;;;;5.90;85.50;;;;;;5107983;28;19963;-74
2023/03/17 06:53:28;;;;;;;;;;;5.90;85.50;;;;;;5103097;28;20043;-74
2023/03/17 06:55:56;;;;;;;;;;;5.80;85.50;;;;;;5099160;27;19928;-73
2023/03/17 06:58:22;;;;;;;;;;;5.80;85.60;;;;;;5097457;28;20038;-72
2023/03/17 07:00:52;;;;;;;;;;;5.80;85.60;;;;;;5094906;28;20321;-76
2023/03/17 07:03:20;;;;;;;;;;;5.80;85.70;;;;;;5093987;28;19932;-74
2023/03/17 07:05:47;;;;;;;;;;;5.80;85.80;;;;;;5097698;28;20384;-79
2023/03/17 07:08:14;;;;;;;;;;;5.80;85.80;;;;;;5102444;28;20022;-79
2023/03/17 07:10:42;;;;;;;;;;;5.80;85.80;;;;;;5099428;28;19932;-76
2023/03/17 07:13:09;;;;;;;;;;;5.80;85.90;;;;;;5093813;28;19928;-80
2023/03/17 07:15:36;;;;;;;;;;;5.80;85.90;;;;;;5097491;28;19928;-80
2023/03/17 07:18:03;;;;;;;;;;;5.80;86.00;;;;;;5098408;28;19936;-77
2023/03/17 07:20:29;;;;;;;;;;;5.80;86.00;;;;;;5100749;27;19939;-76
2023/03/17 07:22:56;;;;;;;;;;;5.80;86.00;;;;;;5091537;28;19950;-79
2023/03/17 07:25:22;;;;;;;;;;;5.80;86.00;;;;;;5086607;27;20463;-76
2023/03/17 07:27:49;;;;;;;;;;;5.80;86.10;;;;;;5079617;28;19940;-78
2023/03/17 07:30:18;;;;;;;;;;;5.80;86.10;;;;;;5076721;28;19980;-79
2023/03/17 07:32:44;;;;;;;;;;;5.80;86.10;;;;;;5087221;28;19927;-78
2023/03/17 07:35:11;;;;;;;;;;;5.80;86.10;;;;;;5079307;28;20604;-78
2023/03/17 07:37:38;;;;;;;;;;;5.80;86.10;;;;;;5097334;28;19992;-78
2023/03/17 07:40:05;;;;;;;;;;;5.80;86.20;;;;;;5092677;28;20014;-75
2023/03/17 07:42:32;;;;;;;;;;;5.80;86.20;;;;;;5098292;28;19927;-75
2023/03/17 07:44:59;;;;;;;;;;;5.80;86.20;;;;;;5089979;28;20003;-78
2023/03/17 07:47:27;;;;;;;;;;;5.90;86.30;;;;;;5096157;27;20409;-77
2023/03/17 07:49:54;;;;;;;;;;;5.90;86.30;;;;;;5096031;28;20135;-77
2023/03/17 07:52:20;;;;;;;;;;;5.80;86.30;;;;;;5092062;28;19981;-76
2023/03/17 07:54:47;;;;;;;;;;;5.80;86.30;;;;;;5091558;28;19931;-77
2023/03/17 07:57:15;;;;;;;;;;;5.90;86.30;;;;;;5099506;28;19966;-77
2023/03/17 07:59:41;;;;;;;;;;;5.90;86.30;;;;;;5073836;28;20032;-77
2023/03/17 08:02:12;;;;;;;;;;;5.90;86.30;;;;;;5072649;28;19936;-78
2023/03/17 08:04:40;;;;;;;;;;;5.90;86.30;;;;;;5071936;28;19945;-77
2023/03/17 08:07:07;;;;;;;;;;;5.90;86.20;;;;;;5076409;28;19938;-78
2023/03/17 08:09:33;;;;;;;;;;;5.90;86.20;;;;;;5094882;28;19927;-76
2023/03/17 08:12:00;;;;;;;;;;;5.90;86.10;;;;;;5092340;28;19935;-78
2023/03/17 08:14:26;;;;;;;;;;;5.90;86.00;;;;;;5096224;28;19932;-77
2023/03/17 08:16:54;;;;;;;;;;;5.90;86.00;;;;;;5095920;28;19928;-77
2023/03/17 08:19:21;;;;;;;;;;;6.00;86.00;;;;;;5086945;28;19935;-77
2023/03/17 08:21:49;;;;;;;;;;;6.00;85.90;;;;;;5080155;28;20014;-78
2023/03/17 08:24:16;;;;;;;;;;;6.00;85.80;;;;;;5093770;27;20579;-79
2023/03/17 08:26:42;;;;;;;;;;;6.00;85.70;;;;;;5100251;28;19957;-77
2023/03/17 08:29:09;;;;;;;;;;;6.00;85.60;;;;;;5091464;27;20007;-77
2023/03/17 08:31:36;;;;;;;;;;;6.10;85.60;;;;;;5078930;28;19940;-77
2023/03/17 08:34:03;;;;;;;;;;;6.10;85.60;;;;;;5074987;28;20022;-77
2023/03/17 08:36:30;;;;;;;;;;;6.20;85.60;;;;;;5084978;28;20000;-77
2023/03/17 08:38:58;;;;;;;;;;;6.20;85.50;;;;;;5078420;28;20530;-77
2023/03/17 08:41:25;;;;;;;;;;;6.20;85.30;;;;;;5076276;28;19958;-78
2023/03/17 08:43:52;;;;;;;;;;;6.30;85.30;;;;;;5078843;28;20809;-78
2023/03/17 08:46:19;;;;;;;;;;;6.30;85.20;;;;;;5074166;28;19952;-79
2023/03/17 08:48:47;;;;;;;;;;;6.40;85.10;;;;;;5078383;28;19928;-79
2023/03/17 08:51:14;;;;;;;;;;;6.40;85.00;;;;;;5091353;28;19928;-77
2023/03/17 08:53:40;;;;;;;;;;;6.40;84.80;;;;;;5091165;28;20316;-77
2023/03/17 08:56:09;;;;;;;;;;;6.50;84.60;;;;;;5086144;28;20491;-79
2023/03/17 08:58:36;;;;;;;;;;;6.60;84.40;;;;;;5079179;28;19993;-78
2023/03/17 09:01:04;;;;;;;;;;;6.70;84.20;;;;;;5077726;28;19935;-78
2023/03/17 09:03:31;;;;;;;;;;;6.70;83.90;;;;;;5085156;28;19939;-77
2023/03/17 09:05:58;;;;;;;;;;;6.80;83.70;;;;;;5101775;28;19995;-77
2023/03/17 09:08:25;;;;;;;;;;;6.90;83.60;;;;;;5083780;28;19936;-77
2023/03/17 09:10:52;;;;;;;;;;;6.90;83.50;;;;;;5071219;28;20806;-78
2023/03/17 09:13:20;;;;;;;;;;;7.00;83.30;;;;;;5077616;28;19932;-80
2023/03/17 09:15:47;;;;;;;;;;;7.10;83.20;;;;;;5086904;28;19927;-75
2023/03/17 09:18:14;;;;;;;;;;;7.10;83.00;;;;;;5093316;28;19935;-75
2023/03/17 09:20:41;;;;;;;;;;;7.20;83.00;;;;;;5099858;28;20030;-76
2023/03/17 09:23:08;;;;;;;;;;;7.30;82.80;;;;;;5090870;28;20581;-76
2023/03/17 09:25:35;;;;;;;;;;;7.40;82.70;;;;;;5089728;27;19928;-75
2023/03/17 09:28:02;;;;;;;;;;;7.40;82.40;;;;;;5094338;28;20015;-73
2023/03/17 09:30:31;;;;;;;;;;;7.50;82.20;;;;;;5092196;28;20538;-75
2023/03/17 09:32:57;;;;;;;;;;;7.60;82.60;;;;;;5089769;28;19928;-74
2023/03/17 09:35:26;;;;;;;;;;;7.60;81.50;;;;;;5089350;28;20669;-73
2023/03/17 09:37:53;;;;;;;;;;;7.70;81.10;;;;;;5091196;28;19931;-74
2023/03/17 09:40:21;;;;;;;;;;;7.80;81.00;;;;;;5088919;28;19935;-76
2023/03/17 09:42:53;;;;;;;;;;;7.90;81.00;;;;;;5090052;28;19934;-77
2023/03/17 09:45:23;;;;;;;;;;;8.00;80.80;;;;;;5094966;28;19928;-76
2023/03/17 09:47:54;;;;;;;;;;;8.00;81.10;;;;;;5102787;28;19928;-76
2023/03/17 09:50:24;;;;;;;;;;;8.10;81.20;;;;;;5094611;28;19932;-74
2023/03/17 09:52:51;;;;;;;;;;;8.20;81.10;;;;;;5091798;28;19939;-73
2023/03/17 09:55:22;;;;;;;;;;;8.20;81.10;;;;;;5095792;28;19931;-74
2023/03/17 09:57:50;;;;;;;;;;;8.30;81.10;;;;;;5091307;28;19931;-75
2023/03/17 10:00:18;;;;;;;;;;;8.40;80.90;;;;;;5088536;28;19932;-73
2023/03/17 10:02:46;;;;;;;;;;;8.40;80.60;;;;;;5094393;28;20416;-75
2023/03/17 10:05:18;;;;;;;;;;;8.50;80.50;;;;;;5098848;28;19966;-75
2023/03/17 10:07:46;;;;;;;;;;;8.60;80.30;;;;;;5095701;28;19932;-75
2023/03/17 10:10:14;;;;;;;;;;;8.70;79.80;;;;;;5089320;28;19982;-75
2023/03/17 10:12:44;;;;;;;;;;;8.70;79.70;;;;;;5091631;28;20013;-74
2023/03/17 10:15:14;;;;;;;;;;;8.80;79.40;;;;;;5097821;28;19989;-74
2023/03/17 10:17:42;;;;;;;;;;;8.90;78.70;;;;;;5089793;28;20452;-75
2023/03/17 10:20:12;;;;;;;;;;;9.00;78.60;;;;;;5095424;28;19928;-72
2023/03/17 10:22:44;;;;;;;;;;;9.00;77.80;;;;;;5094858;28;19928;-75
2023/03/17 10:25:13;;;;;;;;;;;9.20;78.20;;;;;;5096256;28;19931;-73
2023/03/17 10:27:40;;;;;;;;;;;9.20;78.20;;;;;;5093408;28;20710;-74
2023/03/17 10:30:11;;;;;;;;;;;9.30;77.80;;;;;;5091527;28;19931;-76
2023/03/17 10:32:39;;;;;;;;;;;9.40;77.30;;;;;;5093423;28;19928;-76
2023/03/17 10:35:06;;;;;;;;;;;9.40;77.50;;;;;;5095340;28;19928;-76
2023/03/17 10:37:35;;;;;;;;;;;9.50;77.30;;;;;;5099405;28;19935;-77
2023/03/17 10:40:04;;;;;;;;;;;9.60;77.20;;;;;;5098775;28;19932;-77
2023/03/17 10:42:32;;;;;;;;;;;9.60;76.90;;;;;;5099832;28;19982;-76
2023/03/17 10:45:01;;;;;;;;;;;9.70;76.80;;;;;;5093838;28;19934;-75
2023/03/17 10:47:32;;;;;;;;;;;9.70;76.70;;;;;;5101262;27;20769;-74
2023/03/17 10:49:59;;;;;;;;;;;9.70;76.50;;;;;;5097111;28;19928;-74
2023/03/17 10:52:27;;;;;;;;;;;9.80;76.80;;;;;;5097325;28;19932;-75
2023/03/17 10:54:54;;;;;;;;;;;9.80;76.70;;;;;;5095116;28;20371;-75
2023/03/17 10:57:22;;;;;;;;;;;9.80;76.60;;;;;;5097649;28;19928;-75
2023/03/17 10:59:51;;;;;;;;;;;9.90;76.50;;;;;;5096188;27;19928;-76
2023/03/17 11:02:19;;;;;;;;;;;9.90;76.40;;;;;;5094921;28;20352;-77
2023/03/17 11:04:46;;;;;;;;;;;9.90;76.30;;;;;;5099139;28;19931;-76
2023/03/17 11:07:16;;;;;;;;;;;9.90;76.10;;;;;;5098884;28;19980;-76
2023/03/17 11:09:42;;;;;;;;;;;10.00;76.40;;;;;;5093198;28;19985;-77
2023/03/17 11:12:20;;;;;;;;;;;10.00;76.00;;;;;;5091004;27;19932;-75
2023/03/17 11:14:49;;;;;;;;;;;10.00;75.50;;;;;;5097931;28;19924;-77
2023/03/17 11:17:17;;;;;;;;;;;10.10;76.20;;;;;;5100788;28;19935;-77
2023/03/17 11:19:49;;;;;;;;;;;10.10;76.10;;;;;;5094943;28;19989;-76
2023/03/17 11:22:18;;;;;;;;;;;10.20;76.40;;;;;;5090635;28;19939;-75
2023/03/17 11:24:51;;;;;;;;;;;10.20;76.20;;;;;;5096834;28;20003;-77
2023/03/17 11:27:24;;;;;;;;;;;10.30;76.10;;;;;;5095298;27;19967;-76
2023/03/17 11:29:59;;;;;;;;;;;10.30;75.70;;;;;;5098044;28;20018;-74
2023/03/17 11:32:28;;;;;;;;;;;10.40;75.80;;;;;;5089591;28;20745;-74
2023/03/17 11:35:00;;;;;;;;;;;10.50;75.70;;;;;;5095013;28;19935;-74
2023/03/17 11:37:34;;;;;;;;;;;10.50;75.50;;;;;;5090462;28;20015;-74
2023/03/17 11:40:03;;;;;;;;;;;10.60;75.70;;;;;;5090865;28;20321;-74
2023/03/17 11:42:32;;;;;;;;;;;10.60;75.50;;;;;;5095159;28;20658;-75
2023/03/17 11:45:20;;;;;;;;;;;10.70;75.60;;;;;;5094404;27;19928;-75
2023/03/17 11:48:04;;;;;;;;;;;10.70;75.40;;;;;;5088087;27;19931;-76
2023/03/17 11:50:35;;;;;;;;;;;10.80;75.40;;;;;;5091100;28;19932;-75
2023/03/17 11:53:10;;;;;;;;;;;10.80;75.40;;;;;;5087665;28;19977;-76
2023/03/17 11:55:42;;;;;;;;;;;10.80;75.50;;;;;;5093947;28;19927;-77
2023/03/17 11:58:12;;;;;;;;;;;10.90;75.60;;;;;;5095013;28;19927;-76
2023/03/17 12:00:41;;;;;;;;;;;10.80;75.50;;;;;;5092974;28;19928;-76
2023/03/17 12:03:12;;;;;;;;;;;10.80;75.50;;;;;;5097104;28;19928;-76
2023/03/17 12:05:40;;;;;;;;;;;10.90;75.50;;;;;;5085752;28;19924;-76
2023/03/17 12:08:11;;;;;;;;;;;10.90;75.70;;;;;;5093493;28;19945;-76
2023/03/17 12:10:41;;;;;;;;;;;10.90;75.70;;;;;;5093253;28;20018;-77
2023/03/17 12:13:10;;;;;;;;;;;11.00;75.70;;;;;;5095464;28;20394;-77
2023/03/17 12:15:40;;;;;;;;;;;11.00;75.00;;;;;;5091344;28;19984;-76
2023/03/17 12:18:12;;;;;;;;;;;11.00;75.10;;;;;;5092014;28;19928;-76
2023/03/17 12:20:45;;;;;;;;;;;11.10;75.10;;;;;;5091307;28;20310;-76
2023/03/17 12:23:14;;;;;;;;;;;11.20;75.10;;;;;;5094134;28;19931;-75
2023/03/17 12:25:48;;;;;;;;;;;11.20;75.10;;;;;;5086444;28;19927;-77
2023/03/17 12:28:16;;;;;;;;;;;11.20;75.00;;;;;;5093847;28;19953;-76
2023/03/17 12:30:46;;;;;;;;;;;11.30;75.00;;;;;;5095989;28;19963;-76
2023/03/17 12:33:19;;;;;;;;;;;11.30;75.00;;;;;;5091235;28;20036;-76
2023/03/17 12:35:47;;;;;;;;;;;11.30;75.00;;;;;;5095500;28;20003;-76
2023/03/17 12:38:17;;;;;;;;;;;11.40;75.00;;;;;;5092556;28;19932;-76
2023/03/17 12:40:54;;;;;;;;;;;11.40;75.00;;;;;;5090868;28;19925;-75
2023/03/17 12:43:31;;;;;;;;;;;11.40;75.00;;;;;;5093516;28;19935;-74
2023/03/17 12:46:08;;;;;;;;;;;11.40;75.00;;;;;;5088728;28;19932;-74
2023/03/17 12:48:45;;;;;;;;;;;11.40;75.00;;;;;;5095509;28;20015;-75
2023/03/17 12:51:26;;;;;;;;;;;11.50;75.10;;;;;;5095261;28;19932;-75
2023/03/17 12:53:53;;;;;;;;;;;11.50;75.10;;;;;;5097145;27;20435;-73
2023/03/17 12:56:21;;;;;;;;;;;11.50;75.00;;;;;;5090419;27;20738;-75
2023/03/17 12:58:49;;;;;;;;;;;11.60;74.90;;;;;;5089936;28;19928;-75
2023/03/17 13:01:21;;;;;;;;;;;11.60;74.90;;;;;;5089770;28;19940;-76
2023/03/17 13:04:02;;;;;;;;;;;11.60;74.90;;;;;;5093917;28;19938;-75
2023/03/17 13:06:33;;;;;;;;;;;11.70;74.90;;;;;;5089065;28;19936;-74
2023/03/17 13:09:15;;;;;;;;;;;11.70;75.00;;;;;;5090961;27;19932;-75
2023/03/17 13:11:46;;;;;;;;;;;11.70;74.90;;;;;;5085898;28;20157;-73
2023/03/17 13:14:23;;;;;;;;;;;11.80;75.00;;;;;;5092089;27;19928;-76
2023/03/17 13:16:50;;;;;;;;;;;11.80;74.90;;;;;;5086360;28;20011;-75
2023/03/17 13:19:21;;;;;;;;;;;11.90;75.00;;;;;;5086921;28;19931;-73
2023/03/17 13:22:13;;;;;;;;;;;11.90;74.60;;;;;;5086769;27;19936;-74
2023/03/17 13:24:46;;;;;;;;;;;11.90;74.50;;;;;;5094017;28;20516;-74
2023/03/17 13:27:13;;;;;;;;;;;12.00;74.60;;;;;;5094163;28;19943;-76
2023/03/17 13:29:46;;;;;;;;;;;12.00;74.60;;;;;;5093545;28;19928;-74
2023/03/17 13:32:28;;;;;;;;;;;12.10;74.60;;;;;;5088128;28;20626;-76
2023/03/17 13:35:09;;;;;;;;;;;12.10;74.60;;;;;;5088837;28;20282;-73
2023/03/17 13:37:44;;;;;;;;;;;12.20;74.60;;;;;;5098197;27;19928;-75
2023/03/17 13:40:16;;;;;;;;;;;12.20;74.50;;;;;;5097051;28;19931;-74
2023/03/17 13:42:48;;;;;;;;;;;12.30;74.50;;;;;;5091788;28;19927;-77
2023/03/17 13:45:31;;;;;;;;;;;12.30;74.50;;;;;;5094356;28;19983;-74
2023/03/17 13:48:18;;;;;;;;;;;12.30;74.40;;;;;;5090878;28;19934;-75
2023/03/17 13:50:45;;;;;;;;;;;12.40;74.40;;;;;;5093430;28;20363;-74
2023/03/17 13:53:13;;;;;;;;;;;12.40;74.60;;;;;;5091144;28;19939;-74
2023/03/17 13:55:41;;;;;;;;;;;12.40;74.70;;;;;;5089580;28;19938;-74
2023/03/17 13:58:24;;;;;;;;;;;12.40;74.50;;;;;;5096820;28;19928;-74
2023/03/17 14:00:57;;;;;;;;;;;12.50;74.60;;;;;;5090441;28;20011;-74
2023/03/17 14:03:28;;;;;;;;;;;12.50;74.70;;;;;;5091846;28;20442;-74
2023/03/17 14:05:57;;;;;;;;;;;12.50;74.70;;;;;;5092246;28;20460;-73
2023/03/17 14:08:29;;;;;;;;;;;12.60;74.60;;;;;;5087458;28;20031;-75
2023/03/17 14:10:58;;;;;;;;;;;12.60;74.60;;;;;;5090888;28;19928;-74
2023/03/17 14:13:26;;;;;;;;;;;12.70;74.60;;;;;;5092674;28;19928;-75
2023/03/17 14:15:55;;;;;;;;;;;12.70;74.60;;;;;;5091336;28;19932;-73
2023/03/17 14:18:29;;;;;;;;;;;12.80;74.70;;;;;;5097803;28;20351;-74
2023/03/17 14:20:57;;;;;;;;;;;12.80;74.50;;;;;;5098260;28;20356;-75
2023/03/17 14:23:25;;;;;;;;;;;12.90;74.50;;;;;;5097192;28;19931;-74
2023/03/17 14:25:54;;;;;;;;;;;13.20;72.70;;;;;;5100294;27;20692;-76
2023/03/17 14:28:24;;;;;;;;;;;13.50;71.90;;;;;;5102947;28;19928;-75
2023/03/17 14:30:52;;;;;;;;;;;13.50;72.40;;;;;;5099582;28;19984;-74
2023/03/17 14:33:21;;;;;;;;;;;13.50;71.80;;;;;;5104659;28;19928;-77